Hoopa, California
Current Conditions -  °F | °C
As of 8:53 PM on Tuesday 25 Nov 2014 (Local Time) from KACV Reporting Station
Clear Clear  
Wind Chill: 50°   Ceiling: Unl
Heat Index: 50°   Visibility: 7mi
Dew Point: 49°   Wind: 5mph
Humidity: 96%   Direction: 90°E
Pressure: 30.33"   Gusts: NA
Location:  41.05°N, 123.68°W
Report Text: KACV 260453Z AUTO 09004KT 7SM CLR 10/09 A3033 RMK AO2 SLP277 T01000094
Loading
Personal Weather Stations






























Interactive Weather Map New forecast layout! Learn more

10-Day Weather Forecast

Advertisements
Track Severe Weather on mobile